createdAt,value
2022-08-08T00:02:04.069Z,22.30
2022-08-08T00:04:28.079Z,22.30
2022-08-08T00:07:12.833Z,22.30
2022-08-08T00:09:59.236Z,22.20
2022-08-08T00:12:42.728Z,22.20
2022-08-08T00:15:57.680Z,22.20
2022-08-08T00:18:45.811Z,22.10
2022-08-08T00:21:23.139Z,22.10
2022-08-08T00:23:57.304Z,22.10
2022-08-08T00:26:31.157Z,22.00
2022-08-08T00:29:03.705Z,22.00
2022-08-08T00:32:28.339Z,22.00
2022-08-08T00:35:16.685Z,22.00
2022-08-08T00:38:01.906Z,21.90
2022-08-08T00:41:11.219Z,21.90
2022-08-08T00:43:59.146Z,21.80
2022-08-08T00:46:58.319Z,21.80
2022-08-08T00:49:59.713Z,21.80
2022-08-08T00:52:51.289Z,21.70
2022-08-08T00:55:36.098Z,21.70
2022-08-08T00:58:30.596Z,21.70
2022-08-08T01:01:37.775Z,21.70
2022-08-08T01:04:32.946Z,21.60
2022-08-08T01:07:54.093Z,21.60
2022-08-08T01:10:52.324Z,21.60
2022-08-08T01:14:08.573Z,21.50
2022-08-08T01:17:14.180Z,21.50
2022-08-08T01:20:13.230Z,21.50
2022-08-08T01:22:58.382Z,21.40
2022-08-08T01:25:42.931Z,21.40
2022-08-08T01:28:20.900Z,21.40
2022-08-08T01:32:13.850Z,21.30
2022-08-08T01:35:03.017Z,21.30
2022-08-08T01:38:06.640Z,21.20
2022-08-08T01:41:00.202Z,21.20
2022-08-08T01:43:48.554Z,21.10
2022-08-08T01:46:43.118Z,21.10
2022-08-08T01:49:23.454Z,21.10
2022-08-08T01:53:54.734Z,21.10
2022-08-08T01:56:30.478Z,21.10
2022-08-08T01:59:21.677Z,21.00
2022-08-08T02:02:34.208Z,21.00
2022-08-08T02:05:33.863Z,21.00
2022-08-08T02:08:40.022Z,20.90
2022-08-08T02:11:59.096Z,20.80
2022-08-08T02:14:50.148Z,20.70
2022-08-08T02:17:53.496Z,20.70
2022-08-08T02:21:00.912Z,20.60
2022-08-08T02:23:32.002Z,20.50
2022-08-08T02:26:12.295Z,20.50
2022-08-08T02:29:20.787Z,20.40
2022-08-08T02:32:26.462Z,20.40
2022-08-08T02:38:00.686Z,20.20
2022-08-08T02:41:03.175Z,20.20
2022-08-08T02:44:38.278Z,20.10
2022-08-08T02:47:32.008Z,20.00
2022-08-08T02:50:29.470Z,20.00
2022-08-08T02:53:31.482Z,19.90
2022-08-08T02:56:36.947Z,19.90
2022-08-08T02:59:57.485Z,19.80
2022-08-08T03:02:50.844Z,19.80
2022-08-08T03:05:23.531Z,19.70
2022-08-08T03:08:10.800Z,19.60
2022-08-08T03:11:31.856Z,19.60
2022-08-08T03:15:57.395Z,19.50
2022-08-08T03:17:39.131Z,19.50
2022-08-08T03:20:07.989Z,19.50
2022-08-08T03:22:47.673Z,19.40
2022-08-08T03:25:19.286Z,19.40
2022-08-08T03:28:07.800Z,19.30
2022-08-08T03:30:35.872Z,19.30
2022-08-08T03:33:58.221Z,19.20
2022-08-08T03:36:09.328Z,19.20
2022-08-08T03:38:56.356Z,19.10
2022-08-08T03:42:11.480Z,19.10
2022-08-08T03:44:20.378Z,19.10
2022-08-08T03:46:52.842Z,19.00
2022-08-08T03:49:58.928Z,18.90
2022-08-08T03:52:14.384Z,19.00
2022-08-08T03:55:02.546Z,18.90
2022-08-08T03:58:09.728Z,18.90
2022-08-08T04:00:26.060Z,18.90
2022-08-08T04:03:00.693Z,18.80
2022-08-08T04:05:35.368Z,18.80
2022-08-08T04:08:04.295Z,18.80
2022-08-08T04:10:36.485Z,18.80
2022-08-08T04:13:18.159Z,18.80
2022-08-08T04:16:03.510Z,18.80
2022-08-08T04:18:32.142Z,18.70
2022-08-08T04:20:59.595Z,18.70
2022-08-08T04:23:33.128Z,18.70
2022-08-08T04:26:16.203Z,18.70
2022-08-08T04:28:44.370Z,18.60
2022-08-08T04:31:56.710Z,18.60
2022-08-08T04:34:01.974Z,18.70
2022-08-08T04:36:34.352Z,18.50
2022-08-08T04:40:04.290Z,18.50
2022-08-08T04:41:48.826Z,18.50
2022-08-08T04:44:17.715Z,18.60
2022-08-08T04:46:47.350Z,18.50
2022-08-08T04:49:28.727Z,18.50
2022-08-08T04:52:09.934Z,18.50
2022-08-08T04:54:42.663Z,18.50
2022-08-08T04:57:10.294Z,18.40
2022-08-08T04:59:42.254Z,18.50
2022-08-08T05:02:10.267Z,18.40
2022-08-08T05:04:41.691Z,18.50
2022-08-08T05:07:14.949Z,18.40
2022-08-08T05:09:42.558Z,18.50
2022-08-08T05:12:10.305Z,18.50
2022-08-08T05:14:48.439Z,18.50
2022-08-08T05:17:15.573Z,18.50
2022-08-08T05:20:12.849Z,18.50
2022-08-08T05:22:34.605Z,18.50
2022-08-08T05:25:01.722Z,18.40
2022-08-08T05:27:33.310Z,18.60
2022-08-08T05:30:00.598Z,18.60
2022-08-08T05:32:35.836Z,18.70
2022-08-08T05:35:06.880Z,18.80
2022-08-08T05:37:52.676Z,18.90
2022-08-08T05:40:28.157Z,19.60
2022-08-08T05:43:15.528Z,19.30
2022-08-08T05:46:03.309Z,19.50
2022-08-08T05:48:34.638Z,19.60
2022-08-08T05:51:13.487Z,19.90
2022-08-08T05:54:25.516Z,20.00
2022-08-08T05:56:42.464Z,20.20
2022-08-08T06:00:00.906Z,20.30
2022-08-08T06:02:43.669Z,20.60
2022-08-08T06:05:33.520Z,20.70
2022-08-08T06:08:09.618Z,20.90
2022-08-08T06:10:40.894Z,21.00
2022-08-08T06:13:08.963Z,21.10
2022-08-08T06:15:50.790Z,21.20
2022-08-08T06:18:23.999Z,21.30
2022-08-08T06:20:58.322Z,21.50
2022-08-08T06:23:52.480Z,21.60
2022-08-08T06:26:43.712Z,21.70
2022-08-08T06:29:18.654Z,22.70
2022-08-08T06:32:09.785Z,22.00
2022-08-08T06:34:40.522Z,22.20
2022-08-08T06:37:25.732Z,22.20
2022-08-08T06:39:57.186Z,22.60
2022-08-08T06:42:36.359Z,22.70
2022-08-08T06:45:05.859Z,22.80
2022-08-08T06:47:51.833Z,23.00
2022-08-08T06:50:32.256Z,23.20
2022-08-08T06:53:10.076Z,23.40
2022-08-08T06:55:47.183Z,23.40
2022-08-08T06:58:30.529Z,23.60
2022-08-08T07:01:24.422Z,23.70
2022-08-08T07:04:38.022Z,23.80
2022-08-08T07:06:57.037Z,23.80
2022-08-08T07:09:59.659Z,24.00
2022-08-08T07:12:52.031Z,24.10
2022-08-08T07:16:10.163Z,24.30
2022-08-08T07:19:02.880Z,24.40
2022-08-08T07:21:38.985Z,24.50
2022-08-08T07:24:19.063Z,24.60
2022-08-08T07:30:02.156Z,24.80
2022-08-08T07:32:16.990Z,24.90
2022-08-08T07:34:59.233Z,25.00
2022-08-08T07:37:55.396Z,25.00
2022-08-08T07:40:28.805Z,25.10
2022-08-08T07:42:59.833Z,25.20
2022-08-08T07:45:34.711Z,25.20
2022-08-08T07:48:17.310Z,25.40
2022-08-08T07:50:46.565Z,25.60
2022-08-08T07:54:02.069Z,25.70
2022-08-08T07:56:35.538Z,25.90
2022-08-08T07:59:11.673Z,26.10
2022-08-08T08:02:36.801Z,26.30
2022-08-08T08:04:49.358Z,26.40
2022-08-08T08:07:38.674Z,26.50
2022-08-08T08:10:08.448Z,26.70
2022-08-08T08:12:50.345Z,26.90
2022-08-08T08:15:23.625Z,27.10
2022-08-08T08:17:57.244Z,27.20
2022-08-08T08:20:29.836Z,27.40
2022-08-08T08:22:57.862Z,27.60
2022-08-08T08:25:43.743Z,27.80
2022-08-08T08:30:51.878Z,28.10
2022-08-08T08:33:23.349Z,28.30
2022-08-08T08:36:19.559Z,28.40
2022-08-08T08:38:49.677Z,28.50
2022-08-08T08:41:23.795Z,28.70
2022-08-08T08:44:14.406Z,28.80
2022-08-08T08:46:45.640Z,29.00
2022-08-08T08:49:18.681Z,29.10
2022-08-08T08:51:51.150Z,29.20
2022-08-08T08:54:25.434Z,29.20
2022-08-08T08:56:54.058Z,29.30
2022-08-08T08:59:57.613Z,29.50
2022-08-08T09:02:21.813Z,29.60
2022-08-08T09:04:52.653Z,29.60
2022-08-08T09:07:39.541Z,29.60
2022-08-08T09:10:21.307Z,29.70
2022-08-08T09:12:51.251Z,29.80
2022-08-08T09:15:41.556Z,29.80
2022-08-08T09:18:13.203Z,29.80
2022-08-08T09:21:57.052Z,29.80
2022-08-08T09:23:33.502Z,29.80
2022-08-08T09:26:27.626Z,30.00
2022-08-08T09:29:06.536Z,30.10
2022-08-08T09:31:56.760Z,30.20
2022-08-08T09:34:31.655Z,30.30
2022-08-08T09:37:57.269Z,30.50
2022-08-08T09:40:11.887Z,30.50
2022-08-08T09:42:51.667Z,30.70
2022-08-08T09:45:55.057Z,30.70
2022-08-08T09:48:43.082Z,30.80
2022-08-08T09:51:23.098Z,30.80
2022-08-08T09:54:05.188Z,31.10
2022-08-08T09:56:41.246Z,31.00
2022-08-08T09:59:48.212Z,31.00
2022-08-08T10:02:12.947Z,31.10
2022-08-08T10:04:47.796Z,31.10
2022-08-08T10:07:21.145Z,31.10
2022-08-08T10:09:59.443Z,31.00
2022-08-08T10:12:52.918Z,31.00
2022-08-08T10:15:27.412Z,31.10
2022-08-08T10:18:09.255Z,31.10
2022-08-08T10:20:58.008Z,31.00
2022-08-08T10:23:58.586Z,31.10
2022-08-08T10:26:52.481Z,31.10
2022-08-08T10:29:56.767Z,31.10
2022-08-08T10:32:34.272Z,31.10
2022-08-08T10:35:20.496Z,31.10
2022-08-08T10:38:08.275Z,30.90
2022-08-08T10:40:38.985Z,30.70
2022-08-08T10:43:09.818Z,30.70
2022-08-08T10:45:57.202Z,30.80
2022-08-08T10:48:56.537Z,30.90
2022-08-08T10:51:47.134Z,31.00
2022-08-08T10:54:24.887Z,31.00
2022-08-08T10:57:00.593Z,31.00
2022-08-08T10:59:39.892Z,31.00
2022-08-08T11:02:09.735Z,31.00
2022-08-08T11:04:53.298Z,31.00
2022-08-08T11:08:31.165Z,31.00
2022-08-08T11:10:31.739Z,31.10
2022-08-08T11:15:58.836Z,31.00
2022-08-08T11:18:53.581Z,31.00
2022-08-08T11:21:19.675Z,30.90
2022-08-08T11:24:02.199Z,30.90
2022-08-08T11:26:34.070Z,30.90
2022-08-08T11:29:08.487Z,30.90
2022-08-08T11:31:49.086Z,30.90
2022-08-08T11:34:23.467Z,30.90
2022-08-08T11:37:04.503Z,30.90
2022-08-08T11:39:42.809Z,30.90
2022-08-08T11:42:26.982Z,30.80
2022-08-08T11:44:59.779Z,30.80
2022-08-08T11:47:39.714Z,30.60
2022-08-08T11:50:13.489Z,30.50
2022-08-08T11:52:45.323Z,30.30
2022-08-08T11:55:32.160Z,30.30
2022-08-08T11:58:06.805Z,30.30
2022-08-08T12:00:55.604Z,30.30
2022-08-08T12:03:31.160Z,30.30
2022-08-08T12:05:59.352Z,30.40
2022-08-08T12:08:38.004Z,30.40
2022-08-08T12:11:13.934Z,30.40
2022-08-08T12:14:03.830Z,30.40
2022-08-08T12:16:42.059Z,30.40
2022-08-08T12:19:13.939Z,30.40
2022-08-08T12:22:00.295Z,30.20
2022-08-08T12:24:51.314Z,30.30
2022-08-08T12:27:21.610Z,30.20
2022-08-08T12:30:01.972Z,30.10
2022-08-08T12:32:31.383Z,30.00
2022-08-08T12:35:13.214Z,29.90
2022-08-08T12:38:01.152Z,30.00
2022-08-08T12:40:57.009Z,29.90
2022-08-08T12:43:43.801Z,30.00
2022-08-08T12:46:25.364Z,30.00
2022-08-08T12:51:58.425Z,30.00
2022-08-08T12:54:47.490Z,30.00
2022-08-08T12:57:32.936Z,30.00
2022-08-08T13:00:34.090Z,30.00
2022-08-08T13:03:07.278Z,30.00
2022-08-08T13:06:03.641Z,29.90
2022-08-08T13:08:22.967Z,30.00
2022-08-08T13:11:03.609Z,30.00
2022-08-08T13:13:38.285Z,30.00
2022-08-08T13:16:26.282Z,29.90
2022-08-08T13:19:08.083Z,30.00
2022-08-08T13:21:53.480Z,30.00
2022-08-08T13:24:41.987Z,29.90
2022-08-08T13:27:29.990Z,29.90
2022-08-08T13:30:10.550Z,29.90
2022-08-08T13:32:50.204Z,29.70
2022-08-08T13:35:24.972Z,29.80
2022-08-08T13:38:08.588Z,29.70
2022-08-08T13:40:44.908Z,29.70
2022-08-08T13:43:16.460Z,29.70
2022-08-08T13:45:47.408Z,29.60
2022-08-08T13:48:25.360Z,29.60
2022-08-08T13:50:58.024Z,29.60
2022-08-08T13:53:59.814Z,29.60
2022-08-08T13:56:44.638Z,29.60
2022-08-08T13:59:40.511Z,29.50
2022-08-08T14:02:15.822Z,29.50
2022-08-08T14:05:09.318Z,29.40
2022-08-08T14:07:52.375Z,29.50
2022-08-08T14:10:33.092Z,29.50
2022-08-08T14:13:20.918Z,29.40
2022-08-08T14:16:15.802Z,29.40
2022-08-08T14:18:58.060Z,29.40
2022-08-08T14:21:52.004Z,29.40
2022-08-08T14:24:32.282Z,29.40
2022-08-08T14:27:01.932Z,29.30
2022-08-08T14:29:39.343Z,29.30
2022-08-08T14:32:11.838Z,29.30
2022-08-08T14:34:42.824Z,29.30
2022-08-08T14:37:42.962Z,29.30
2022-08-08T14:40:05.671Z,29.20
2022-08-08T14:42:55.145Z,29.20
2022-08-08T14:45:26.809Z,29.20
2022-08-08T14:48:05.047Z,29.20
2022-08-08T14:50:37.890Z,29.20
2022-08-08T14:53:15.401Z,29.20
2022-08-08T14:55:44.979Z,29.20
2022-08-08T14:58:16.955Z,29.20
2022-08-08T15:00:51.490Z,29.20
2022-08-08T15:03:19.035Z,29.20
2022-08-08T15:05:53.801Z,28.90
2022-08-08T15:08:34.453Z,29.20
2022-08-08T15:11:06.510Z,28.90
2022-08-08T15:13:39.748Z,29.10
2022-08-08T15:16:12.067Z,29.00
2022-08-08T15:18:51.863Z,29.00
2022-08-08T15:21:21.025Z,29.20
2022-08-08T15:23:51.418Z,28.60
2022-08-08T15:26:20.540Z,29.00
2022-08-08T15:28:50.807Z,28.60
2022-08-08T15:32:02.860Z,29.00
2022-08-08T15:34:18.229Z,28.90
2022-08-08T15:36:50.715Z,28.90
2022-08-08T15:39:18.163Z,28.80
2022-08-08T15:41:46.040Z,28.80
2022-08-08T15:44:13.823Z,28.80
2022-08-08T15:46:45.394Z,28.80
2022-08-08T15:49:26.761Z,28.80
2022-08-08T15:51:58.062Z,28.80
2022-08-08T15:54:38.346Z,28.80
2022-08-08T15:57:07.801Z,28.80
2022-08-08T16:00:10.971Z,28.80
2022-08-08T16:02:30.333Z,28.80
2022-08-08T16:04:59.171Z,28.80
2022-08-08T16:07:39.620Z,28.80
2022-08-08T16:13:02.802Z,28.70
2022-08-08T16:13:27.702Z,28.70
2022-08-08T16:15:58.926Z,28.70
2022-08-08T16:18:36.030Z,28.60
2022-08-08T16:21:03.024Z,28.60
2022-08-08T16:23:33.001Z,28.60
2022-08-08T16:26:03.968Z,28.60
2022-08-08T16:28:35.807Z,28.60
2022-08-08T16:31:07.752Z,28.60
2022-08-08T16:33:38.773Z,28.60
2022-08-08T16:36:09.595Z,28.50
2022-08-08T16:38:44.833Z,28.50
2022-08-08T16:41:18.336Z,28.50
2022-08-08T16:43:50.608Z,28.50
2022-08-08T16:46:44.709Z,28.50
2022-08-08T16:49:07.750Z,28.50
2022-08-08T16:55:00.748Z,28.40
2022-08-08T16:55:18.388Z,28.40
2022-08-08T16:57:27.791Z,28.40
2022-08-08T16:59:58.971Z,28.40
2022-08-08T17:02:32.735Z,28.40
2022-08-08T17:05:07.569Z,28.30
2022-08-08T17:07:37.482Z,28.30
2022-08-08T17:10:11.661Z,28.30
2022-08-08T17:12:52.626Z,28.30
2022-08-08T17:15:22.833Z,28.30
2022-08-08T17:18:02.771Z,28.30
2022-08-08T17:20:40.074Z,28.30
2022-08-08T17:23:17.693Z,28.30
2022-08-08T17:25:55.643Z,28.30
2022-08-08T17:28:34.124Z,28.20
2022-08-08T17:31:45.891Z,28.20
2022-08-08T17:34:36.467Z,28.20
2022-08-08T17:37:00.917Z,28.10
2022-08-08T17:40:03.210Z,28.10
2022-08-08T17:42:18.543Z,28.10
2022-08-08T17:44:49.203Z,28.10
2022-08-08T17:47:27.843Z,28.00
2022-08-08T17:50:01.460Z,28.00
2022-08-08T17:52:31.022Z,28.00
2022-08-08T17:54:58.570Z,27.90
2022-08-08T17:57:28.864Z,28.00
2022-08-08T18:00:02.864Z,27.90
2022-08-08T18:02:30.270Z,27.90
2022-08-08T18:04:58.713Z,27.90
2022-08-08T18:08:02.454Z,27.90
2022-08-08T18:10:15.706Z,27.90
2022-08-08T18:12:45.913Z,27.90
2022-08-08T18:15:14.323Z,27.80
2022-08-08T18:18:09.724Z,27.80
2022-08-08T18:20:43.316Z,27.80
2022-08-08T18:23:15.476Z,27.80
2022-08-08T18:25:43.806Z,27.80
2022-08-08T18:28:13.192Z,27.80
2022-08-08T18:30:41.069Z,27.70
2022-08-08T18:33:10.722Z,27.70
2022-08-08T18:36:02.855Z,27.70
2022-08-08T18:38:34.317Z,27.70
2022-08-08T18:41:03.125Z,27.60
2022-08-08T18:43:42.507Z,27.60
2022-08-08T18:46:55.326Z,27.60
2022-08-08T18:48:58.374Z,27.60
2022-08-08T18:51:52.697Z,27.60
2022-08-08T18:54:22.689Z,27.50
2022-08-08T18:56:57.218Z,27.50
2022-08-08T18:59:24.240Z,27.50
2022-08-08T19:02:28.451Z,27.50
2022-08-08T19:04:38.602Z,27.40
2022-08-08T19:07:05.515Z,27.40
2022-08-08T19:09:49.314Z,27.40
2022-08-08T19:12:26.672Z,27.30
2022-08-08T19:14:54.323Z,27.30
2022-08-08T19:17:53.070Z,27.30
2022-08-08T19:20:09.103Z,27.20
2022-08-08T19:22:36.578Z,27.20
2022-08-08T19:26:01.106Z,27.20
2022-08-08T19:27:57.486Z,27.10
2022-08-08T19:30:27.380Z,27.10
2022-08-08T19:32:58.129Z,27.10
2022-08-08T19:35:45.006Z,27.00
2022-08-08T19:38:21.092Z,27.00
2022-08-08T19:40:55.822Z,27.00
2022-08-08T19:43:28.223Z,26.90
2022-08-08T19:45:57.246Z,26.90
2022-08-08T19:48:28.860Z,26.90
2022-08-08T19:51:00.786Z,26.80
2022-08-08T19:53:51.949Z,26.80
2022-08-08T19:56:16.504Z,26.80
2022-08-08T19:58:54.828Z,26.70
2022-08-08T20:01:31.648Z,26.70
2022-08-08T20:04:09.301Z,26.60
2022-08-08T20:06:36.448Z,26.60
2022-08-08T20:09:04.439Z,26.50
2022-08-08T20:11:42.947Z,26.50
2022-08-08T20:14:31.275Z,26.40
2022-08-08T20:16:57.265Z,26.40
2022-08-08T20:19:34.238Z,26.30
2022-08-08T20:22:13.143Z,26.30
2022-08-08T20:24:52.503Z,26.20
2022-08-08T20:27:21.258Z,26.20
2022-08-08T20:30:00.291Z,26.20
2022-08-08T20:32:29.703Z,26.10
2022-08-08T20:35:01.158Z,26.10
2022-08-08T20:37:47.270Z,26.10
2022-08-08T20:40:17.260Z,26.00
2022-08-08T20:42:55.197Z,26.00
2022-08-08T20:45:23.372Z,25.90
2022-08-08T20:48:09.718Z,25.90
2022-08-08T20:50:36.943Z,25.80
2022-08-08T20:53:06.870Z,25.80
2022-08-08T20:55:43.086Z,25.80
2022-08-08T20:58:22.910Z,25.70
2022-08-08T21:00:51.303Z,25.60
2022-08-08T21:03:18.101Z,25.60
2022-08-08T21:05:59.054Z,25.60
2022-08-08T21:08:36.017Z,25.60
2022-08-08T21:11:09.235Z,25.50
2022-08-08T21:13:40.836Z,25.50
2022-08-08T21:16:17.796Z,25.50
2022-08-08T21:18:47.317Z,25.40
2022-08-08T21:21:20.320Z,25.40
2022-08-08T21:23:59.092Z,25.30
2022-08-08T21:26:32.187Z,25.30
2022-08-08T21:29:01.180Z,25.30
2022-08-08T21:31:58.325Z,25.20
2022-08-08T21:34:18.775Z,25.10
2022-08-08T21:36:48.286Z,25.10
2022-08-08T21:39:17.606Z,25.10
2022-08-08T21:41:51.323Z,25.10
2022-08-08T21:44:25.711Z,25.00
2022-08-08T21:48:02.193Z,25.00
2022-08-08T21:49:39.273Z,24.90
2022-08-08T21:54:31.836Z,24.90
2022-08-08T21:55:03.392Z,24.90
2022-08-08T21:57:42.016Z,24.80
2022-08-08T22:00:12.385Z,24.80
2022-08-08T22:02:41.936Z,24.80
2022-08-08T22:05:09.913Z,24.70
2022-08-08T22:07:40.895Z,24.70
2022-08-08T22:10:18.603Z,24.70
2022-08-08T22:13:17.581Z,24.70
2022-08-08T22:15:59.157Z,24.60
2022-08-08T22:18:30.097Z,24.60
2022-08-08T22:20:59.615Z,24.60
2022-08-08T22:23:38.775Z,24.50
2022-08-08T22:26:28.043Z,24.50
2022-08-08T22:29:14.593Z,24.50
2022-08-08T22:31:58.676Z,24.50
2022-08-08T22:34:31.141Z,24.40
2022-08-08T22:36:57.952Z,24.40
2022-08-08T22:39:39.171Z,24.30
2022-08-08T22:42:13.491Z,24.30
2022-08-08T22:44:50.863Z,24.30
2022-08-08T22:47:18.385Z,24.20
2022-08-08T22:49:45.338Z,24.20
2022-08-08T22:52:26.032Z,24.20
2022-08-08T22:54:56.136Z,24.10
2022-08-08T22:57:44.198Z,24.10
2022-08-08T23:00:16.754Z,24.00
2022-08-08T23:02:44.640Z,24.00
2022-08-08T23:05:17.207Z,24.00
2022-08-08T23:07:51.688Z,23.90
2022-08-08T23:10:25.243Z,23.90
2022-08-08T23:12:53.603Z,23.80
2022-08-08T23:16:39.108Z,23.80
2022-08-08T23:18:11.557Z,23.80
2022-08-08T23:20:40.389Z,23.70
2022-08-08T23:23:07.475Z,23.70
2022-08-08T23:25:42.711Z,23.70
2022-08-08T23:28:14.636Z,23.60
2022-08-08T23:30:42.146Z,23.60
2022-08-08T23:33:19.080Z,23.60
2022-08-08T23:35:58.907Z,23.60
2022-08-08T23:38:33.340Z,23.50
2022-08-08T23:41:00.175Z,23.50
2022-08-08T23:43:45.183Z,23.40
2022-08-08T23:49:03.468Z,23.30
2022-08-08T23:49:15.441Z,23.30
2022-08-08T23:52:04.047Z,23.30
2022-08-08T23:54:42.398Z,23.20
2022-08-08T23:57:27.824Z,23.20
